Time;durP1;ratioP1;P1;durP2;ratioP2;P2;SDS_P1;SDS_P2;PMS_P1;PMS_P2;Temp;Humidity;BMP_temperature;BMP_pressure;BME280_temperature;BME280_humidity;BME280_pressure;Samples;Min_cycle;Max_cycle;Signal;HPM_P1;HPM_P2
2023/03/11 00:01:46;;;;;;;13.25;8.50;;;;;;;;;;10342125;28;20422;-87
2023/03/11 00:06:48;;;;;;;12.57;8.13;;;;;;;;;;10341569;28;20415;-86
2023/03/11 00:11:49;;;;;;;14.35;9.13;;;;;;;;;;10329841;28;20980;-86
2023/03/11 00:16:53;;;;;;;15.57;9.10;;;;;;;;;;10349699;28;20407;-86
2023/03/11 00:21:55;;;;;;;14.98;9.45;;;;;;;;;;10355129;28;20422;-86
2023/03/11 00:26:57;;;;;;;14.98;9.43;;;;;;;;;;10347393;28;20419;-86
2023/03/11 00:32:00;;;;;;;13.27;9.30;;;;;;;;;;10352510;28;20415;-86
2023/03/11 00:37:02;;;;;;;12.48;9.43;;;;;;;;;;10343125;28;20416;-85
2023/03/11 00:42:05;;;;;;;17.83;10.15;;;;;;;;;;10336263;28;20440;-86
2023/03/11 00:47:09;;;;;;;19.98;9.27;;;;;;;;;;10349874;28;20437;-85
2023/03/11 00:52:11;;;;;;;13.73;9.20;;;;;;;;;;10351725;28;20423;-85
2023/03/11 00:57:13;;;;;;;16.42;9.93;;;;;;;;;;10356392;28;20891;-85
2023/03/11 01:02:16;;;;;;;14.15;9.35;;;;;;;;;;10356001;28;20432;-86
2023/03/11 01:07:18;;;;;;;19.20;11.43;;;;;;;;;;10352341;28;21023;-85
2023/03/11 01:12:20;;;;;;;18.23;11.93;;;;;;;;;;10347139;28;20470;-85
2023/03/11 01:17:23;;;;;;;21.35;14.30;;;;;;;;;;10349594;28;20399;-86
2023/03/11 01:22:26;;;;;;;21.85;14.52;;;;;;;;;;10363507;28;20434;-85
2023/03/11 01:27:28;;;;;;;24.55;14.25;;;;;;;;;;10350744;28;20429;-86
2023/03/11 01:32:31;;;;;;;22.10;14.23;;;;;;;;;;10351192;28;20404;-85
2023/03/11 01:37:33;;;;;;;21.83;14.03;;;;;;;;;;10362747;28;20413;-86
2023/03/11 01:42:35;;;;;;;24.80;14.35;;;;;;;;;;10345121;28;20431;-85
2023/03/11 01:47:41;;;;;;;24.75;14.52;;;;;;;;;;10351812;28;20403;-85
2023/03/11 01:52:44;;;;;;;25.75;14.63;;;;;;;;;;10338980;28;20413;-85
2023/03/11 01:57:47;;;;;;;21.00;14.83;;;;;;;;;;10337581;28;20405;-85
2023/03/11 02:02:52;;;;;;;22.10;14.43;;;;;;;;;;10350334;28;20473;-86
2023/03/11 02:07:56;;;;;;;24.80;15.50;;;;;;;;;;10360790;28;20407;-85
2023/03/11 02:12:58;;;;;;;23.77;15.10;;;;;;;;;;10343190;28;21556;-86
2023/03/11 02:18:03;;;;;;;22.75;14.25;;;;;;;;;;10353072;28;21108;-86
2023/03/11 02:23:05;;;;;;;22.48;14.93;;;;;;;;;;10364356;28;20519;-85
2023/03/11 02:28:12;;;;;;;23.27;16.27;;;;;;;;;;10343775;28;20469;-85
2023/03/11 02:33:15;;;;;;;26.60;16.73;;;;;;;;;;10347947;28;20443;-85
2023/03/11 02:38:17;;;;;;;25.20;16.55;;;;;;;;;;10334796;28;20408;-85
2023/03/11 02:43:24;;;;;;;28.93;17.33;;;;;;;;;;10339546;28;20907;-85
2023/03/11 02:48:28;;;;;;;27.17;17.55;;;;;;;;;;10353980;28;20446;-86
2023/03/11 02:53:33;;;;;;;25.92;17.05;;;;;;;;;;10357688;28;20572;-86
2023/03/11 02:58:36;;;;;;;26.67;18.25;;;;;;;;;;10359067;28;20409;-86
2023/03/11 03:03:38;;;;;;;24.90;17.58;;;;;;;;;;10344535;28;20520;-86
2023/03/11 03:08:40;;;;;;;27.03;17.73;;;;;;;;;;10357872;28;20412;-86
2023/03/11 03:13:43;;;;;;;27.27;18.48;;;;;;;;;;10349137;28;20469;-86
2023/03/11 03:18:45;;;;;;;29.23;18.07;;;;;;;;;;10352725;28;20415;-86
2023/03/11 03:23:47;;;;;;;26.23;18.23;;;;;;;;;;10352510;28;20476;-84
2023/03/11 03:28:50;;;;;;;27.13;18.13;;;;;;;;;;10343019;28;20413;-86
2023/03/11 03:33:52;;;;;;;26.73;18.83;;;;;;;;;;10355511;28;20418;-84
2023/03/11 03:38:55;;;;;;;26.97;19.83;;;;;;;;;;10353355;28;20502;-86
2023/03/11 03:43:58;;;;;;;28.25;18.88;;;;;;;;;;10340575;28;20477;-85
2023/03/11 03:49:00;;;;;;;28.38;18.83;;;;;;;;;;10340671;28;20412;-85
2023/03/11 03:54:02;;;;;;;28.40;19.80;;;;;;;;;;10331088;28;20413;-86
2023/03/11 03:59:05;;;;;;;30.10;19.87;;;;;;;;;;10342469;28;20904;-85
2023/03/11 04:04:07;;;;;;;28.02;18.85;;;;;;;;;;10355050;28;20431;-85
2023/03/11 04:09:10;;;;;;;29.85;19.55;;;;;;;;;;10348932;28;20496;-86
2023/03/11 04:14:14;;;;;;;31.20;18.93;;;;;;;;;;10344998;28;20412;-85
2023/03/11 04:19:16;;;;;;;32.67;19.92;;;;;;;;;;10353873;28;20400;-85
2023/03/11 04:24:18;;;;;;;30.87;19.20;;;;;;;;;;10347192;28;20543;-85
2023/03/11 04:29:21;;;;;;;30.08;19.42;;;;;;;;;;10342548;28;20409;-86
2023/03/11 04:34:23;;;;;;;25.33;18.52;;;;;;;;;;10356498;28;20493;-86
2023/03/11 04:39:24;;;;;;;34.70;18.52;;;;;;;;;;10337156;28;20427;-86
2023/03/11 04:44:28;;;;;;;28.50;18.13;;;;;;;;;;10340304;28;20422;-85
2023/03/11 04:49:30;;;;;;;27.97;17.07;;;;;;;;;;10357082;28;20399;-85
2023/03/11 04:54:32;;;;;;;28.23;17.60;;;;;;;;;;10343144;28;20424;-85
2023/03/11 04:59:35;;;;;;;25.33;17.65;;;;;;;;;;10346353;28;20400;-86
2023/03/11 05:04:37;;;;;;;28.05;17.73;;;;;;;;;;10356431;28;20861;-86
2023/03/11 05:09:39;;;;;;;28.42;17.90;;;;;;;;;;10339009;28;20409;-85
2023/03/11 05:14:42;;;;;;;24.03;16.67;;;;;;;;;;10345411;28;20412;-86
2023/03/11 05:19:44;;;;;;;24.70;16.00;;;;;;;;;;10357103;28;20770;-85
2023/03/11 05:24:46;;;;;;;24.83;15.38;;;;;;;;;;10337629;28;20423;-86
2023/03/11 05:29:49;;;;;;;22.25;15.48;;;;;;;;;;10344992;28;20919;-85
2023/03/11 05:34:52;;;;;;;26.50;16.33;;;;;;;;;;10335368;28;20915;-86
2023/03/11 05:39:54;;;;;;;24.47;15.77;;;;;;;;;;10339448;28;20408;-86
2023/03/11 05:44:57;;;;;;;22.80;15.60;;;;;;;;;;10353194;28;20432;-84
2023/03/11 05:49:59;;;;;;;25.00;15.67;;;;;;;;;;10363388;28;20410;-86
2023/03/11 05:55:01;;;;;;;23.10;15.80;;;;;;;;;;10361646;28;20966;-85
2023/03/11 06:00:10;;;;;;;22.83;15.13;;;;;;;;;;10363929;28;20414;-85
2023/03/11 06:05:12;;;;;;;22.00;14.85;;;;;;;;;;10361297;28;20491;-86
2023/03/11 06:10:14;;;;;;;23.10;15.00;;;;;;;;;;10363886;28;20457;-85
2023/03/11 06:15:17;;;;;;;21.52;14.15;;;;;;;;;;10367791;28;20494;-84
2023/03/11 06:20:20;;;;;;;19.02;13.32;;;;;;;;;;10357159;28;20496;-85
2023/03/11 06:25:21;;;;;;;20.80;13.45;;;;;;;;;;10362442;28;20426;-85
2023/03/11 06:30:25;;;;;;;20.95;13.18;;;;;;;;;;10367042;28;20406;-84
2023/03/11 06:35:27;;;;;;;18.05;13.20;;;;;;;;;;10357907;28;20446;-83
2023/03/11 06:40:29;;;;;;;18.23;12.57;;;;;;;;;;10361506;28;20422;-83
2023/03/11 06:45:32;;;;;;;20.27;11.73;;;;;;;;;;10357690;28;20414;-83
2023/03/11 06:50:34;;;;;;;21.90;12.35;;;;;;;;;;10354176;28;20415;-84
2023/03/11 06:55:36;;;;;;;17.98;12.13;;;;;;;;;;10338021;28;20399;-84
2023/03/11 07:00:39;;;;;;;20.77;13.20;;;;;;;;;;10353903;28;20414;-84
2023/03/11 07:05:42;;;;;;;20.83;12.73;;;;;;;;;;10352804;28;20440;-84
2023/03/11 07:10:43;;;;;;;19.60;12.27;;;;;;;;;;10338859;28;20430;-84
2023/03/11 07:15:47;;;;;;;21.40;12.20;;;;;;;;;;10356252;28;20934;-86
2023/03/11 07:20:49;;;;;;;21.60;13.33;;;;;;;;;;10336115;28;20411;-84
2023/03/11 07:25:51;;;;;;;17.58;12.30;;;;;;;;;;10343977;28;20420;-84
2023/03/11 07:30:55;;;;;;;19.70;12.95;;;;;;;;;;10354501;28;20430;-84
2023/03/11 07:35:57;;;;;;;20.23;12.93;;;;;;;;;;10351061;28;20413;-86
2023/03/11 07:58:48;;;;;;;18.77;12.80;;;;;;;;;;10368265;28;20770;-85
2023/03/11 08:03:55;;;;;;;21.80;12.60;;;;;;;;;;10392794;28;20429;-86
2023/03/11 08:08:58;;;;;;;17.92;12.20;;;;;;;;;;10398704;28;20508;-85
2023/03/11 08:14:02;;;;;;;19.80;12.50;;;;;;;;;;10405649;28;20405;-86
2023/03/11 08:19:04;;;;;;;24.20;10.80;;;;;;;;;;10390583;28;20444;-87
2023/03/11 08:24:06;;;;;;;18.02;9.32;;;;;;;;;;10407065;28;20447;-87
2023/03/11 08:29:10;;;;;;;14.90;8.27;;;;;;;;;;10408983;28;20442;-86
2023/03/11 08:34:13;;;;;;;13.05;7.32;;;;;;;;;;10394505;28;20494;-86
2023/03/11 08:39:15;;;;;;;16.88;8.52;;;;;;;;;;10400969;28;20405;-87
2023/03/11 08:44:18;;;;;;;17.07;9.40;;;;;;;;;;10396943;28;20921;-86
2023/03/11 08:49:20;;;;;;;18.83;8.97;;;;;;;;;;10393673;28;20410;-86
2023/03/11 08:54:22;;;;;;;16.65;7.03;;;;;;;;;;10395887;28;20784;-86
2023/03/11 08:59:25;;;;;;;17.23;7.60;;;;;;;;;;10399893;28;20415;-86
2023/03/11 09:04:27;;;;;;;12.47;6.60;;;;;;;;;;10392552;28;20455;-86
2023/03/11 09:09:29;;;;;;;13.20;6.88;;;;;;;;;;10402950;28;20780;-87
2023/03/11 09:14:32;;;;;;;15.55;7.35;;;;;;;;;;10409831;28;20402;-86
2023/03/11 09:19:34;;;;;;;14.55;6.68;;;;;;;;;;10401127;28;20414;-86
2023/03/11 09:24:36;;;;;;;17.77;6.88;;;;;;;;;;10411246;23;20485;-85
2023/03/11 09:29:39;;;;;;;16.98;7.25;;;;;;;;;;10378788;28;20465;-85
2023/03/11 09:34:42;;;;;;;16.37;7.47;;;;;;;;;;10371868;28;20540;-87
2023/03/11 09:39:44;;;;;;;16.03;8.10;;;;;;;;;;10371190;28;20411;-87
2023/03/11 09:44:54;;;;;;;19.25;10.57;;;;;;;;;;10368123;28;20419;-87
2023/03/11 09:50:08;;;;;;;26.25;12.63;;;;;;;;;;10369992;28;21160;-87
2023/03/11 09:55:26;;;;;;;26.05;12.18;;;;;;;;;;10363775;28;20423;-87
2023/03/11 10:00:30;;;;;;;17.23;9.48;;;;;;;;;;10357506;28;20494;-86
2023/03/11 10:05:32;;;;;;;16.30;8.70;;;;;;;;;;10367327;28;20470;-83
2023/03/11 10:10:41;;;;;;;18.10;8.93;;;;;;;;;;10360125;28;20965;-82
2023/03/11 10:15:49;;;;;;;16.40;9.88;;;;;;;;;;10306927;28;20411;-83
2023/03/11 10:20:57;;;;;;;16.63;8.67;;;;;;;;;;10342309;28;20434;-83
2023/03/11 10:26:07;;;;;;;17.58;10.00;;;;;;;;;;10358971;28;20422;-83
2023/03/11 10:31:21;;;;;;;19.08;9.10;;;;;;;;;;10360015;28;20794;-82
2023/03/11 10:36:26;;;;;;;17.92;8.98;;;;;;;;;;10377890;28;20442;-93
2023/03/11 10:41:32;;;;;;;17.10;9.00;;;;;;;;;;10373066;28;20418;-88
2023/03/11 10:46:35;;;;;;;17.80;8.63;;;;;;;;;;10385557;28;20399;-90
2023/03/11 10:51:37;;;;;;;18.37;8.67;;;;;;;;;;10369302;28;20872;-83
2023/03/11 11:02:02;;;;;;;17.98;9.80;;;;;;;;;;10358428;28;20506;-83
2023/03/11 11:07:29;;;;;;;18.60;10.82;;;;;;;;;;10352644;28;20506;-82
2023/03/11 11:12:31;;;;;;;20.17;11.63;;;;;;;;;;10355192;28;20441;-81
2023/03/11 11:17:35;;;;;;;22.27;12.77;;;;;;;;;;10358922;28;21004;-82
2023/03/11 11:22:37;;;;;;;25.30;14.63;;;;;;;;;;10353789;28;20447;-85
2023/03/11 11:27:39;;;;;;;27.13;15.73;;;;;;;;;;10349978;28;20756;-91
2023/03/11 11:32:45;;;;;;;28.63;15.43;;;;;;;;;;10358747;28;20473;-82
2023/03/11 11:37:50;;;;;;;30.45;16.17;;;;;;;;;;10359281;28;20457;-85
2023/03/11 11:42:55;;;;;;;26.93;16.00;;;;;;;;;;10352927;28;20432;-85
2023/03/11 11:48:03;;;;;;;24.50;14.95;;;;;;;;;;10358767;28;20789;-88
2023/03/11 11:53:17;;;;;;;26.37;15.53;;;;;;;;;;10361855;28;20424;-82
2023/03/11 11:58:20;;;;;;;27.58;16.02;;;;;;;;;;10360636;28;20441;-90
2023/03/11 12:03:49;;;;;;;52.22;29.77;;;;;;;;;;10369352;28;20504;-83
2023/03/11 12:09:03;;;;;;;46.28;24.45;;;;;;;;;;10361905;28;20415;-83
2023/03/11 12:14:13;;;;;;;25.60;15.00;;;;;;;;;;10360824;28;20430;-83
2023/03/11 12:19:27;;;;;;;51.00;30.08;;;;;;;;;;10366143;28;20473;-84
2023/03/11 12:24:56;;;;;;;39.83;19.05;;;;;;;;;;10370844;28;20435;-84
2023/03/11 12:30:23;;;;;;;28.23;16.17;;;;;;;;;;10375488;28;20411;-84
2023/03/11 12:41:29;;;;;;;26.55;16.80;;;;;;;;;;10352652;28;20403;-84
2023/03/11 12:47:01;;;;;;;27.53;16.33;;;;;;;;;;10377350;28;20417;-83
2023/03/11 12:52:21;;;;;;;29.52;17.27;;;;;;;;;;10371621;28;20773;-82
2023/03/11 12:57:48;;;;;;;31.77;18.63;;;;;;;;;;10363303;28;20442;-84
2023/03/11 13:03:24;;;;;;;31.63;18.40;;;;;;;;;;10375320;28;20920;-84
2023/03/11 13:08:37;;;;;;;31.40;17.58;;;;;;;;;;10373930;28;20983;-81
2023/03/11 13:14:37;;;;;;;31.45;18.27;;;;;;;;;;10374507;28;20423;-82
2023/03/11 13:19:54;;;;;;;29.55;17.65;;;;;;;;;;10370447;28;20426;-83
2023/03/11 13:25:31;;;;;;;29.05;17.48;;;;;;;;;;10360337;28;20461;-82
2023/03/11 13:30:49;;;;;;;31.13;17.92;;;;;;;;;;10366143;28;20442;-83
2023/03/11 13:36:07;;;;;;;28.55;17.20;;;;;;;;;;10360832;28;20415;-83
2023/03/11 13:41:17;;;;;;;30.65;17.75;;;;;;;;;;10374066;28;20407;-83
2023/03/11 13:46:27;;;;;;;26.23;16.95;;;;;;;;;;10382738;28;20931;-84
2023/03/11 13:51:36;;;;;;;29.77;18.10;;;;;;;;;;10381060;28;20402;-83
2023/03/11 13:56:45;;;;;;;28.52;16.90;;;;;;;;;;10378988;28;20437;-83
2023/03/11 14:01:52;;;;;;;27.90;16.92;;;;;;;;;;10383398;28;20439;-82
2023/03/11 14:06:53;;;;;;;29.92;16.85;;;;;;;;;;10375660;28;20436;-82
2023/03/11 14:12:04;;;;;;;27.57;16.50;;;;;;;;;;10370822;28;20435;-82
2023/03/11 14:17:09;;;;;;;24.55;15.90;;;;;;;;;;10374132;28;20414;-82
2023/03/11 14:22:15;;;;;;;23.83;15.05;;;;;;;;;;10371672;28;20418;-82
2023/03/11 14:27:18;;;;;;;20.73;14.20;;;;;;;;;;10373437;28;20516;-81
2023/03/11 14:32:27;;;;;;;20.23;14.27;;;;;;;;;;10379215;28;21013;-82
2023/03/11 14:37:32;;;;;;;22.93;14.70;;;;;;;;;;10369804;28;20448;-82
2023/03/11 14:42:39;;;;;;;22.42;14.75;;;;;;;;;;10362717;28;20431;-81
2023/03/11 14:47:47;;;;;;;21.63;12.45;;;;;;;;;;10355251;28;20415;-81
2023/03/11 14:52:52;;;;;;;23.30;13.38;;;;;;;;;;10355609;28;20458;-81
2023/03/11 14:58:01;;;;;;;23.17;13.90;;;;;;;;;;10354614;28;20411;-81
2023/03/11 15:03:15;;;;;;;20.70;13.97;;;;;;;;;;10350662;28;20433;-82
2023/03/11 15:08:20;;;;;;;21.77;13.05;;;;;;;;;;10340192;28;20514;-81
2023/03/11 15:13:24;;;;;;;21.80;13.82;;;;;;;;;;10348819;28;21186;-81
2023/03/11 15:18:30;;;;;;;21.47;12.47;;;;;;;;;;10348418;28;20518;-84
2023/03/11 15:23:35;;;;;;;21.67;13.30;;;;;;;;;;10351886;28;20821;-83
2023/03/11 15:28:39;;;;;;;23.17;13.20;;;;;;;;;;10348652;28;20923;-77
2023/03/11 15:33:41;;;;;;;20.60;12.97;;;;;;;;;;10350429;28;20431;-77
2023/03/11 15:38:43;;;;;;;23.65;13.15;;;;;;;;;;10351463;28;20801;-75
2023/03/11 15:43:47;;;;;;;20.42;12.73;;;;;;;;;;10346451;28;21020;-76
2023/03/11 15:48:49;;;;;;;19.90;12.27;;;;;;;;;;10349829;28;20516;-76
2023/03/11 15:53:57;;;;;;;19.80;12.05;;;;;;;;;;10350656;28;20463;-81
2023/03/11 15:59:00;;;;;;;20.77;11.60;;;;;;;;;;10348049;28;20426;-81
2023/03/11 16:04:02;;;;;;;18.98;11.23;;;;;;;;;;10345247;28;20413;-82
2023/03/11 16:09:05;;;;;;;20.40;10.85;;;;;;;;;;10350583;28;20421;-81
2023/03/11 16:14:14;;;;;;;19.10;10.53;;;;;;;;;;10353398;28;20433;-81
2023/03/11 16:19:16;;;;;;;16.13;9.63;;;;;;;;;;10348027;28;20452;-81
2023/03/11 16:24:20;;;;;;;20.07;9.63;;;;;;;;;;10344901;28;20419;-81
2023/03/11 16:29:25;;;;;;;17.02;9.05;;;;;;;;;;10352070;28;20430;-81
2023/03/11 16:34:27;;;;;;;16.27;9.00;;;;;;;;;;10349119;28;20419;-81
2023/03/11 16:39:29;;;;;;;17.70;9.73;;;;;;;;;;10350969;28;20501;-81
2023/03/11 16:44:33;;;;;;;16.92;9.55;;;;;;;;;;10347339;28;20510;-81
2023/03/11 16:49:35;;;;;;;18.35;9.85;;;;;;;;;;10346748;28;20499;-81
2023/03/11 16:54:37;;;;;;;20.30;10.68;;;;;;;;;;10346699;28;20438;-81
2023/03/11 17:00:03;;;;;;;20.83;10.77;;;;;;;;;;10348187;28;20419;-81
2023/03/11 17:05:08;;;;;;;23.73;11.85;;;;;;;;;;10336528;28;20414;-82
2023/03/11 17:10:13;;;;;;;22.58;12.45;;;;;;;;;;10344931;28;20516;-82
2023/03/11 17:15:17;;;;;;;23.23;12.95;;;;;;;;;;10364312;28;20517;-83
2023/03/11 17:20:22;;;;;;;20.93;11.50;;;;;;;;;;10358733;28;20415;-83
2023/03/11 17:25:28;;;;;;;23.10;11.07;;;;;;;;;;10354039;28;20965;-83
2023/03/11 17:30:41;;;;;;;24.13;11.68;;;;;;;;;;10365314;28;20930;-83
2023/03/11 17:35:43;;;;;;;25.73;13.53;;;;;;;;;;10375549;28;20873;-83
2023/03/11 17:40:45;;;;;;;30.65;15.73;;;;;;;;;;10385407;28;20780;-82
2023/03/11 17:45:48;;;;;;;27.70;13.50;;;;;;;;;;10382071;28;20437;-83
2023/03/11 17:50:50;;;;;;;25.33;12.95;;;;;;;;;;10386717;28;20747;-83
2023/03/11 17:55:52;;;;;;;27.10;13.02;;;;;;;;;;10383620;28;20509;-83
2023/03/11 18:00:56;;;;;;;28.00;12.57;;;;;;;;;;10385595;28;20407;-83
2023/03/11 18:05:59;;;;;;;23.60;12.50;;;;;;;;;;10388764;28;20408;-83
2023/03/11 18:11:03;;;;;;;23.73;12.73;;;;;;;;;;10384429;28;20407;-83
2023/03/11 18:16:09;;;;;;;23.58;13.27;;;;;;;;;;10383200;28;20423;-83
2023/03/11 18:21:12;;;;;;;23.47;12.90;;;;;;;;;;10385733;28;20421;-83
2023/03/11 18:26:16;;;;;;;27.75;14.73;;;;;;;;;;10384903;28;20449;-83
2023/03/11 18:31:21;;;;;;;27.05;13.38;;;;;;;;;;10378099;28;20403;-82
2023/03/11 18:36:25;;;;;;;26.70;13.43;;;;;;;;;;10376909;28;20923;-82
2023/03/11 18:41:30;;;;;;;28.08;14.15;;;;;;;;;;10388742;28;20430;-81
2023/03/11 18:46:34;;;;;;;23.60;12.07;;;;;;;;;;10382921;28;20415;-83
2023/03/11 18:51:36;;;;;;;27.38;13.30;;;;;;;;;;10384252;28;20415;-83
2023/03/11 18:56:38;;;;;;;25.08;11.30;;;;;;;;;;10389109;28;20774;-83
2023/03/11 19:01:41;;;;;;;25.47;12.63;;;;;;;;;;10377262;28;20410;-83
2023/03/11 19:06:43;;;;;;;24.98;11.77;;;;;;;;;;10369658;28;20407;-84
2023/03/11 19:11:45;;;;;;;25.13;11.70;;;;;;;;;;10372013;28;20411;-83
2023/03/11 19:16:52;;;;;;;25.17;11.77;;;;;;;;;;10365820;28;20427;-83
2023/03/11 19:21:54;;;;;;;20.95;10.88;;;;;;;;;;10373355;28;20443;-85
2023/03/11 19:26:56;;;;;;;23.10;10.15;;;;;;;;;;10380618;28;20427;-84
2023/03/11 19:31:59;;;;;;;21.77;9.93;;;;;;;;;;10374995;28;20415;-84
2023/03/11 19:37:01;;;;;;;22.65;10.25;;;;;;;;;;10375998;28;20828;-83
2023/03/11 19:42:03;;;;;;;25.60;11.53;;;;;;;;;;10373615;28;20767;-83
2023/03/11 19:47:07;;;;;;;23.30;11.73;;;;;;;;;;10380566;28;20536;-84
2023/03/11 19:52:08;;;;;;;21.08;11.27;;;;;;;;;;10376396;28;20417;-83
2023/03/11 19:57:10;;;;;;;22.53;11.23;;;;;;;;;;10374253;28;20430;-83
2023/03/11 20:02:17;;;;;;;22.77;9.95;;;;;;;;;;10376265;28;20495;-84
2023/03/11 20:07:19;;;;;;;20.17;9.80;;;;;;;;;;10376091;28;20414;-84
2023/03/11 20:12:21;;;;;;;22.17;10.43;;;;;;;;;;10376404;28;20790;-83
2023/03/11 20:17:24;;;;;;;21.52;10.60;;;;;;;;;;10367758;28;20454;-84
2023/03/11 20:22:26;;;;;;;20.58;10.40;;;;;;;;;;10376386;28;20511;-83
2023/03/11 20:27:28;;;;;;;23.70;10.35;;;;;;;;;;10375325;28;20418;-84
2023/03/11 20:32:31;;;;;;;22.03;9.93;;;;;;;;;;10373511;28;20413;-84
2023/03/11 20:37:33;;;;;;;23.42;10.55;;;;;;;;;;10373377;28;20433;-84
2023/03/11 20:42:35;;;;;;;25.27;13.20;;;;;;;;;;10372558;28;20409;-83
2023/03/11 20:47:38;;;;;;;25.60;13.87;;;;;;;;;;10378384;28;20422;-84
2023/03/11 20:52:40;;;;;;;29.83;16.07;;;;;;;;;;10373241;28;20559;-83
2023/03/11 20:57:42;;;;;;;30.23;17.92;;;;;;;;;;10369047;28;20431;-84
2023/03/11 21:02:45;;;;;;;25.83;14.20;;;;;;;;;;10372351;28;20425;-84
2023/03/11 21:07:48;;;;;;;24.65;12.30;;;;;;;;;;10384485;28;20407;-83
2023/03/11 21:12:50;;;;;;;20.33;10.18;;;;;;;;;;10382339;28;20461;-83
2023/03/11 21:17:53;;;;;;;17.98;9.25;;;;;;;;;;10378098;28;20435;-83
2023/03/11 21:22:55;;;;;;;15.98;8.20;;;;;;;;;;10385888;28;20444;-84
2023/03/11 21:27:57;;;;;;;15.13;8.00;;;;;;;;;;10380716;28;20450;-84
2023/03/11 21:33:00;;;;;;;12.38;6.88;;;;;;;;;;10378381;28;20472;-84
2023/03/11 21:38:02;;;;;;;9.93;5.95;;;;;;;;;;10379463;28;20518;-84
2023/03/11 21:43:04;;;;;;;8.85;4.72;;;;;;;;;;10364554;28;20411;-83
2023/03/11 21:48:09;;;;;;;5.60;4.00;;;;;;;;;;10364345;28;20497;-84
2023/03/11 21:53:11;;;;;;;3.72;3.30;;;;;;;;;;10360364;28;20797;-84
2023/03/11 21:58:13;;;;;;;5.57;2.83;;;;;;;;;;10363702;28;20849;-84
2023/03/11 22:03:16;;;;;;;5.17;2.90;;;;;;;;;;10377711;28;20413;-84
2023/03/11 22:08:20;;;;;;;6.45;2.83;;;;;;;;;;10374099;28;20503;-84
2023/03/11 22:13:22;;;;;;;3.22;2.22;;;;;;;;;;10373609;28;20415;-85
2023/03/11 22:18:26;;;;;;;2.90;2.15;;;;;;;;;;10369960;28;20459;-85
2023/03/11 22:23:28;;;;;;;3.55;2.30;;;;;;;;;;10375886;28;20422;-85
2023/03/11 22:28:31;;;;;;;4.13;2.30;;;;;;;;;;10383839;28;20421;-84
2023/03/11 22:33:35;;;;;;;3.17;2.27;;;;;;;;;;10369249;28;20553;-84
2023/03/11 22:38:37;;;;;;;4.63;3.20;;;;;;;;;;10370016;28;20414;-84
2023/03/11 22:43:47;;;;;;;4.70;3.50;;;;;;;;;;10364258;28;20861;-85
2023/03/11 22:48:50;;;;;;;6.55;3.88;;;;;;;;;;10368479;28;20450;-84
2023/03/11 22:53:52;;;;;;;6.78;4.10;;;;;;;;;;10367525;28;20417;-84
2023/03/11 22:58:54;;;;;;;8.82;4.88;;;;;;;;;;10370009;28;20497;-85
2023/03/11 23:03:57;;;;;;;8.93;5.53;;;;;;;;;;10370052;28;20522;-85
2023/03/11 23:09:05;;;;;;;11.20;6.00;;;;;;;;;;10369390;28;20461;-85
2023/03/11 23:14:07;;;;;;;9.23;5.40;;;;;;;;;;10367554;28;20423;-85
2023/03/11 23:19:10;;;;;;;10.15;6.13;;;;;;;;;;10368867;28;20570;-85
2023/03/11 23:24:12;;;;;;;10.43;6.10;;;;;;;;;;10363164;28;20804;-85
2023/03/11 23:29:14;;;;;;;11.73;6.55;;;;;;;;;;10369207;28;20782;-85
2023/03/11 23:34:17;;;;;;;10.98;6.60;;;;;;;;;;10367878;28;20961;-84
2023/03/11 23:39:19;;;;;;;12.93;7.00;;;;;;;;;;10368134;28;20490;-84
2023/03/11 23:44:21;;;;;;;10.80;7.07;;;;;;;;;;10367072;28;20498;-85
2023/03/11 23:49:25;;;;;;;9.17;6.17;;;;;;;;;;10366628;28;20423;-85
2023/03/11 23:54:27;;;;;;;10.05;6.35;;;;;;;;;;10367164;28;20411;-85
2023/03/11 23:59:29;;;;;;;9.77;6.80;;;;;;;;;;10365429;28;20414;-83
